createdAt,value
2023-05-12T00:05:15.859Z,64.18
2023-05-12T00:20:15.882Z,65.36
2023-05-12T00:35:16.006Z,66.43
2023-05-12T00:50:16.098Z,68.15
2023-05-12T01:05:16.209Z,68.55
2023-05-12T01:20:16.197Z,73.47
2023-05-12T01:35:17.458Z,75.71
2023-05-12T01:50:18.438Z,78.82
2023-05-12T02:05:19.671Z,82.89
2023-05-12T02:20:19.825Z,86.48
2023-05-12T02:35:19.683Z,87.92
2023-05-12T02:50:19.991Z,89.54
2023-05-12T03:05:19.795Z,91.33
2023-05-12T03:20:20.273Z,93.98
2023-05-12T03:35:21.044Z,95.93
2023-05-12T03:50:21.456Z,97.22
2023-05-12T04:05:22.391Z,95.07
2023-05-12T04:20:22.435Z,90.00
2023-05-12T04:35:22.717Z,84.33
2023-05-12T04:50:22.623Z,80.50
2023-05-12T05:05:22.921Z,79.64
2023-05-12T05:20:27.937Z,79.94
2023-05-12T05:35:27.828Z,73.86
2023-05-12T05:50:29.194Z,71.67
2023-05-12T06:05:29.306Z,64.35
2023-05-12T06:20:29.523Z,62.26
2023-05-12T06:35:29.719Z,58.32
2023-05-12T06:50:29.835Z,54.74
2023-05-12T07:05:30.896Z,52.81
2023-05-12T07:20:31.238Z,50.85
2023-05-12T07:35:31.343Z,51.07
2023-05-12T07:50:31.568Z,45.15
2023-05-12T08:05:31.632Z,44.81
2023-05-12T08:20:32.472Z,43.00
2023-05-12T08:35:32.506Z,40.31
2023-05-12T08:50:32.634Z,39.59
2023-05-12T09:05:32.605Z,37.24
2023-05-12T09:20:32.674Z,39.40
2023-05-12T09:35:32.808Z,37.83
2023-05-12T09:50:44.242Z,38.32
2023-05-12T10:05:38.272Z,35.53
2023-05-12T10:20:38.448Z,37.02
2023-05-12T10:35:38.707Z,35.46
2023-05-12T10:50:38.576Z,36.08
2023-05-12T11:05:38.945Z,34.94
2023-05-12T11:20:38.876Z,33.98
2023-05-12T11:35:39.006Z,35.04
2023-05-12T11:50:39.013Z,36.10
2023-05-12T12:05:39.627Z,35.75
2023-05-12T12:20:39.920Z,35.37
2023-05-12T12:35:39.879Z,36.11
2023-05-12T12:50:40.006Z,36.11
2023-05-12T13:05:40.024Z,35.33
2023-05-12T13:20:40.079Z,36.52
2023-05-12T13:35:40.319Z,34.10
2023-05-12T13:50:40.245Z,31.62
2023-05-12T14:05:40.435Z,31.80
2023-05-12T14:20:40.502Z,31.56
2023-05-12T14:35:40.633Z,31.53
2023-05-12T14:50:40.653Z,31.25
2023-05-12T15:05:56.559Z,32.14
2023-05-12T15:20:46.104Z,33.13
2023-05-12T15:35:46.218Z,32.00
2023-05-12T15:50:46.191Z,31.82
2023-05-12T16:05:46.307Z,30.75
2023-05-12T16:20:46.288Z,32.65
2023-05-12T16:35:46.383Z,33.08
2023-05-12T16:50:46.505Z,36.22
2023-05-12T17:05:46.587Z,39.32
2023-05-12T17:20:46.639Z,41.25
2023-05-12T17:35:56.534Z,42.61
2023-05-12T17:50:51.882Z,44.68
2023-05-12T18:05:52.063Z,45.04
2023-05-12T18:20:52.121Z,46.81
2023-05-12T18:35:52.144Z,47.16
2023-05-12T18:50:52.578Z,49.07
2023-05-12T19:05:52.361Z,50.75
2023-05-12T19:20:52.509Z,51.73
2023-05-12T19:35:52.600Z,54.66
2023-05-12T19:50:52.706Z,57.15
2023-05-12T20:05:52.751Z,58.85
2023-05-12T20:20:52.884Z,60.63
2023-05-12T20:35:52.943Z,61.81
2023-05-12T20:50:53.043Z,64.31
2023-05-12T21:05:53.043Z,66.17
2023-05-12T21:20:53.181Z,68.13
2023-05-12T21:35:53.169Z,69.15
2023-05-12T21:50:53.393Z,70.21
2023-05-12T22:05:53.392Z,71.06
2023-05-12T22:20:53.473Z,72.41
2023-05-12T22:35:53.578Z,74.42
2023-05-12T22:50:53.699Z,75.27
2023-05-12T23:05:53.732Z,77.70
2023-05-12T23:20:53.784Z,79.06
2023-05-12T23:35:53.899Z,80.46
2023-05-12T23:50:53.936Z,83.82
